Time;durP1;ratioP1;P1;durP2;ratioP2;P2;SDS_P1;SDS_P2;PMS_P1;PMS_P2;Temp;Humidity;BMP_temperature;BMP_pressure;BME280_temperature;BME280_humidity;BME280_pressure;Samples;Min_cycle;Max_cycle;Signal;HPM_P1;HPM_P2
2023/06/21 00:00:32;;;;;;;8.20;6.95;;;;;;;21.54;73.00;101230.78;4977272;28;20029;-86
2023/06/21 00:03:01;;;;;;;9.15;6.75;;;;;;;21.57;73.29;101241.84;4977647;28;20404;-87
2023/06/21 00:05:27;;;;;;;9.82;7.20;;;;;;;21.59;73.03;101244.34;4993829;28;20034;-86
2023/06/21 00:07:54;;;;;;;12.20;6.80;;;;;;;21.58;73.10;101243.53;4977396;28;20065;-86
2023/06/21 00:10:23;;;;;;;9.98;7.25;;;;;;;21.43;73.11;101234.28;4961317;28;20023;-86
2023/06/21 00:12:49;;;;;;;9.70;6.72;;;;;;;21.32;73.24;101216.78;4977440;28;20105;-87
2023/06/21 00:15:15;;;;;;;8.60;7.03;;;;;;;21.47;73.26;101248.88;5009555;28;20491;-86
2023/06/21 00:17:40;;;;;;;8.57;6.05;;;;;;;21.32;73.50;101232.56;4977157;28;20049;-87
2023/06/21 00:20:09;;;;;;;10.57;7.32;;;;;;;21.33;74.36;101255.28;4994465;28;20412;-87
2023/06/21 00:22:35;;;;;;;8.90;6.55;;;;;;;21.44;74.06;101257.88;4977523;28;20054;-87
2023/06/21 00:25:01;;;;;;;9.48;7.18;;;;;;;21.38;73.72;101253.13;4977249;28;20076;-86
2023/06/21 00:27:26;;;;;;;12.63;7.35;;;;;;;21.40;74.20;101251.19;4960374;28;20055;-87
2023/06/21 00:29:52;;;;;;;9.65;7.05;;;;;;;21.43;74.25;101244.81;4994652;28;20034;-87
2023/06/21 00:32:17;;;;;;;8.23;6.55;;;;;;;21.46;74.15;101255.94;4976910;28;20034;-86
2023/06/21 00:34:46;;;;;;;9.45;7.13;;;;;;;21.38;73.98;101245.22;4993206;28;20041;-87
2023/06/21 00:37:12;;;;;;;9.98;6.78;;;;;;;21.29;73.15;101226.75;4993228;28;20034;-86
2023/06/21 00:39:37;;;;;;;8.20;7.15;;;;;;;21.41;72.90;101241.47;4992905;28;20454;-86
2023/06/21 00:42:03;;;;;;;11.00;6.75;;;;;;;21.35;72.85;101242.84;4992720;28;20026;-86
2023/06/21 00:44:28;;;;;;;8.38;6.30;;;;;;;21.32;73.54;101248.34;4976950;28;20579;-86
2023/06/21 00:46:54;;;;;;;9.10;6.95;;;;;;;21.29;73.40;101238.09;4960456;28;20036;-87
2023/06/21 00:49:19;;;;;;;7.82;6.75;;;;;;;21.28;73.14;101236.44;4976346;28;20093;-86
2023/06/21 00:51:44;;;;;;;10.00;6.45;;;;;;;21.32;73.01;101242.25;4992498;28;20484;-85
2023/06/21 00:54:16;;;;;;;11.25;6.78;;;;;;;21.26;73.23;101243.63;4960417;28;20412;-86
2023/06/21 00:56:42;;;;;;;11.93;7.68;;;;;;;21.20;73.43;101233.56;4976797;28;20038;-86
2023/06/21 00:59:09;;;;;;;10.85;6.40;;;;;;;21.10;73.35;101237.94;4992587;28;20030;-86
2023/06/21 01:01:37;;;;;;;9.35;6.55;;;;;;;21.22;73.37;101257.94;4976559;28;20032;-86
2023/06/21 01:04:03;;;;;;;9.10;6.97;;;;;;;21.10;73.66;101240.56;4976492;28;20467;-85
2023/06/21 01:06:40;;;;;;;7.80;6.40;;;;;;;21.16;73.61;101247.97;4976336;28;20100;-87
2023/06/21 01:09:13;;;;;;;10.07;6.60;;;;;;;21.13;73.54;101245.56;4976885;28;20069;-86
2023/06/21 01:11:48;;;;;;;13.43;6.57;;;;;;;21.08;73.52;101239.88;4976737;28;20037;-87
2023/06/21 01:14:35;;;;;;;11.88;6.93;;;;;;;21.03;73.42;101242.03;4976833;28;20085;-86
2023/06/21 01:17:01;;;;;;;10.57;6.97;;;;;;;21.05;73.89;101240.13;4992559;28;20026;-87
2023/06/21 01:19:40;;;;;;;9.20;6.70;;;;;;;21.02;73.73;101256.16;4992273;28;20138;-87
2023/06/21 01:22:21;;;;;;;15.77;6.90;;;;;;;20.87;73.91;101238.06;4991895;28;20048;-86
2023/06/21 01:25:24;;;;;;;9.33;7.23;;;;;;;20.95;74.08;101244.50;4993435;28;20022;-86
2023/06/21 01:28:14;;;;;;;9.82;7.38;;;;;;;20.90;73.91;101236.97;4991794;28;20683;-87
2023/06/21 01:30:39;;;;;;;13.52;7.07;;;;;;;20.73;74.22;101219.09;4993232;28;20036;-86
2023/06/21 01:33:07;;;;;;;9.38;6.57;;;;;;;20.85;73.89;101229.47;4991803;28;20026;-87
2023/06/21 01:35:32;;;;;;;9.38;7.00;;;;;;;20.88;74.09;101223.13;4975897;28;20479;-86
2023/06/21 01:38:00;;;;;;;10.15;7.57;;;;;;;20.85;73.81;101226.84;4991775;28;20031;-86
2023/06/21 01:40:26;;;;;;;11.65;7.22;;;;;;;20.86;74.27;101225.88;4959953;28;20033;-86
2023/06/21 01:42:51;;;;;;;12.45;7.55;;;;;;;20.86;74.33;101232.94;4991513;28;20537;-86
2023/06/21 01:45:17;;;;;;;13.40;8.77;;;;;;;20.90;73.44;101234.34;4975485;28;20034;-86
2023/06/21 01:47:42;;;;;;;11.27;7.30;;;;;;;20.86;73.33;101230.31;4991971;28;20042;-86
2023/06/21 01:50:08;;;;;;;9.68;7.45;;;;;;;20.81;74.50;101224.56;4975229;28;20038;-86
2023/06/21 01:52:33;;;;;;;10.00;7.18;;;;;;;20.75;74.42;101233.81;4975444;28;20520;-86
2023/06/21 01:54:59;;;;;;;10.10;6.45;;;;;;;20.79;73.98;101240.47;4958884;28;20030;-87
2023/06/21 01:57:25;;;;;;;8.65;6.28;;;;;;;20.83;74.04;101246.31;4959331;28;20038;-86
2023/06/21 01:59:52;;;;;;;8.70;6.18;;;;;;;20.80;73.66;101241.31;4990650;28;20091;-86
2023/06/21 02:02:18;;;;;;;8.70;6.35;;;;;;;20.75;73.70;101249.59;4991363;28;20026;-86
2023/06/21 02:04:43;;;;;;;10.70;7.03;;;;;;;20.68;73.52;101232.66;4959056;28;20194;-87
2023/06/21 02:07:13;;;;;;;6.93;5.97;;;;;;;20.69;74.31;101252.72;4975139;28;20053;-86
2023/06/21 02:09:39;;;;;;;8.30;6.40;;;;;;;20.53;74.54;101239.13;4959855;28;20026;-86
2023/06/21 02:12:05;;;;;;;10.23;6.80;;;;;;;20.56;75.03;101246.78;4958972;28;20038;-86
2023/06/21 02:14:30;;;;;;;9.02;6.78;;;;;;;20.45;75.04;101231.03;4991005;28;20543;-87
2023/06/21 02:16:56;;;;;;;10.05;6.75;;;;;;;20.60;74.60;101243.78;4974724;28;20480;-87
2023/06/21 02:19:24;;;;;;;9.52;7.18;;;;;;;20.64;74.24;101254.88;4990100;28;20385;-86
2023/06/21 02:21:50;;;;;;;13.05;6.97;;;;;;;20.64;74.19;101257.50;4975287;28;20481;-86
2023/06/21 02:24:16;;;;;;;8.77;6.57;;;;;;;20.65;74.62;101260.97;4974651;28;20058;-87
2023/06/21 02:26:41;;;;;;;9.73;6.20;;;;;;;20.53;74.58;101247.03;4990689;28;20497;-86
2023/06/21 02:29:07;;;;;;;9.55;6.75;;;;;;;20.62;74.95;101264.69;4974691;28;20460;-87
2023/06/21 02:31:33;;;;;;;11.15;6.32;;;;;;;20.55;74.47;101250.34;4974969;28;20116;-87
2023/06/21 02:33:58;;;;;;;8.75;6.70;;;;;;;20.54;74.40;101252.16;4958585;28;20034;-86
2023/06/21 02:36:24;;;;;;;9.32;7.07;;;;;;;20.51;74.31;101256.81;4990722;28;20026;-86
2023/06/21 02:38:49;;;;;;;8.68;6.80;;;;;;;20.55;73.96;101259.09;4990174;28;20408;-86
2023/06/21 02:41:15;;;;;;;8.30;6.25;;;;;;;20.59;73.77;101260.50;4990717;28;20057;-86
2023/06/21 02:43:40;;;;;;;7.93;6.35;;;;;;;20.55;73.77;101263.50;4990565;28;20456;-86
2023/06/21 02:46:05;;;;;;;8.88;6.90;;;;;;;20.51;73.87;101248.94;4974417;28;20030;-86
2023/06/21 02:48:31;;;;;;;9.73;6.53;;;;;;;20.50;73.49;101263.88;4991992;28;20085;-86
2023/06/21 02:50:57;;;;;;;9.00;6.50;;;;;;;20.45;74.00;101266.06;4990258;28;20026;-85
2023/06/21 02:53:22;;;;;;;7.80;6.00;;;;;;;20.46;73.77;101265.09;4957953;28;20030;-87
2023/06/21 02:55:47;;;;;;;11.45;6.90;;;;;;;20.51;73.96;101255.03;4958312;28;20026;-89
2023/06/21 02:58:13;;;;;;;8.63;6.47;;;;;;;20.55;74.66;101269.63;5007436;28;20503;-92
2023/06/21 03:00:40;;;;;;;9.90;7.32;;;;;;;20.68;75.16;101269.44;4974968;28;20113;-89
2023/06/21 03:03:06;;;;;;;10.98;6.70;;;;;;;20.69;75.04;101260.59;4958962;28;20026;-88
2023/06/21 03:05:35;;;;;;;9.75;6.82;;;;;;;20.69;73.28;101271.13;4974876;28;20407;-89
2023/06/21 03:08:03;;;;;;;8.23;6.07;;;;;;;20.66;73.55;101260.88;4974634;28;20034;-89
2023/06/21 03:10:29;;;;;;;8.95;6.45;;;;;;;20.67;73.89;101262.53;4975044;28;20018;-90
2023/06/21 03:12:55;;;;;;;9.77;6.38;;;;;;;20.69;73.49;101271.13;4958598;28;20037;-89
2023/06/21 03:15:20;;;;;;;10.30;6.55;;;;;;;20.73;73.40;101272.53;4958075;28;20026;-89
2023/06/21 03:17:46;;;;;;;8.90;7.03;;;;;;;20.71;73.15;101276.25;4974144;28;20034;-89
2023/06/21 03:20:12;;;;;;;10.60;6.90;;;;;;;20.77;73.31;101275.75;4960465;28;20440;-91
2023/06/21 03:22:41;;;;;;;38.97;8.55;;;;;;;20.81;73.56;101283.25;4974075;28;20034;-89
2023/06/21 03:25:11;;;;;;;10.85;6.78;;;;;;;20.77;73.73;101284.47;4974438;28;20030;-89
2023/06/21 03:27:37;;;;;;;14.10;6.93;;;;;;;20.71;73.84;101287.59;4974356;28;20133;-88
2023/06/21 03:30:07;;;;;;;15.75;7.13;;;;;;;20.73;73.25;101283.03;4973784;28;20113;-90
2023/06/21 03:32:32;;;;;;;9.80;7.30;;;;;;;20.80;73.67;101302.63;4978437;28;20065;-89
2023/06/21 03:34:58;;;;;;;10.23;6.90;;;;;;;20.97;73.02;101308.31;4994516;28;20026;-89
2023/06/21 03:37:25;;;;;;;24.60;7.40;;;;;;;20.94;72.52;101308.56;4978382;28;20026;-89
2023/06/21 03:39:50;;;;;;;10.73;6.70;;;;;;;21.01;72.10;101302.66;4962487;28;20476;-90
2023/06/21 03:42:15;;;;;;;16.52;7.38;;;;;;;21.00;72.51;101311.53;4994202;28;20068;-89
2023/06/21 03:44:41;;;;;;;10.45;6.68;;;;;;;21.08;72.27;101305.63;4978888;28;20118;-86
2023/06/21 03:47:06;;;;;;;10.27;7.20;;;;;;;21.20;71.81;101310.72;4995218;28;20536;-88
2023/06/21 03:49:32;;;;;;;13.82;7.18;;;;;;;21.33;71.31;101313.19;4977434;28;20447;-86
2023/06/21 03:51:57;;;;;;;14.48;7.10;;;;;;;21.17;71.42;101291.72;4993769;28;20041;-86
2023/06/21 03:54:23;;;;;;;10.05;6.50;;;;;;;21.41;71.13;101316.00;4977114;28;20038;-86
2023/06/21 03:56:48;;;;;;;10.57;7.22;;;;;;;21.47;70.45;101317.31;4977085;28;20038;-87
2023/06/21 03:59:14;;;;;;;9.50;7.25;;;;;;;21.48;70.45;101317.19;4993349;28;20030;-87
2023/06/21 04:01:39;;;;;;;8.50;6.72;;;;;;;21.51;70.37;101325.78;4993711;28;20481;-86
2023/06/21 04:04:05;;;;;;;11.38;7.15;;;;;;;21.63;69.73;101324.75;4977280;28;20500;-86
2023/06/21 04:06:30;;;;;;;10.38;7.22;;;;;;;21.64;69.32;101306.19;4976863;28;20500;-88
2023/06/21 04:08:56;;;;;;;9.27;7.13;;;;;;;21.64;69.29;101297.47;4992982;28;20112;-85
2023/06/21 04:11:22;;;;;;;14.50;7.38;;;;;;;21.66;68.98;101308.69;4993439;28;20069;-86
2023/06/21 04:13:48;;;;;;;9.07;7.15;;;;;;;21.62;69.33;101309.91;4973615;28;20030;-88
2023/06/21 04:16:13;;;;;;;14.32;7.47;;;;;;;21.62;69.59;101326.53;4959736;28;20034;-91
2023/06/21 04:18:39;;;;;;;11.52;7.65;;;;;;;21.44;71.30;101315.78;4991893;28;20026;-87
2023/06/21 04:21:04;;;;;;;10.80;8.25;;;;;;;21.43;71.96;101314.13;4974293;28;20488;-89
2023/06/21 04:23:30;;;;;;;11.38;8.55;;;;;;;21.47;71.16;101322.56;4996985;28;20034;-93
2023/06/21 04:25:56;;;;;;;11.80;7.10;;;;;;;21.48;70.69;101325.06;4997287;28;20032;-90
2023/06/21 04:28:24;;;;;;;12.35;7.38;;;;;;;21.50;70.92;101339.91;4998021;28;20019;-92
2023/06/21 04:30:51;;;;;;;11.98;6.90;;;;;;;21.47;71.40;101344.47;4977087;28;20102;-91
2023/06/21 04:33:17;;;;;;;15.55;7.72;;;;;;;21.41;71.56;101341.50;4976569;28;20558;-89
2023/06/21 04:35:42;;;;;;;8.70;6.85;;;;;;;21.51;71.58;101347.66;4976561;28;20038;-92
2023/06/21 04:38:08;;;;;;;9.57;6.70;;;;;;;21.54;72.76;101351.88;4980400;28;20057;-92
2023/06/21 04:40:33;;;;;;;9.85;6.78;;;;;;;21.59;72.07;101349.66;4977497;28;20038;-91
2023/06/21 04:43:01;;;;;;;9.38;7.43;;;;;;;21.54;71.36;101342.16;4977312;28;20042;-87
2023/06/21 04:45:26;;;;;;;13.68;7.75;;;;;;;21.63;73.30;101343.16;4994543;28;20026;-88
2023/06/21 04:47:52;;;;;;;9.98;7.60;;;;;;;21.85;71.75;101361.47;4960844;28;20116;-89
2023/06/21 04:50:19;;;;;;;9.57;7.60;;;;;;;21.89;71.59;101346.25;4997989;28;20034;-88
2023/06/21 04:52:48;;;;;;;8.95;6.80;;;;;;;22.06;70.60;101353.53;4995613;28;20034;-90
2023/06/21 04:55:18;;;;;;;13.25;7.00;;;;;;;22.04;71.40;101344.94;4969924;28;20052;-91
2023/06/21 04:57:44;;;;;;;9.38;7.07;;;;;;;22.15;71.94;101349.31;4995151;28;20030;-91
2023/06/21 05:00:10;;;;;;;11.82;7.60;;;;;;;22.25;70.17;101351.03;4976380;28;20042;-91
2023/06/21 05:02:36;;;;;;;10.25;7.90;;;;;;;22.28;69.54;101344.66;4991745;28;20389;-89
2023/06/21 05:05:01;;;;;;;9.57;7.07;;;;;;;22.35;69.43;101348.44;4992283;28;20034;-89
2023/06/21 05:07:27;;;;;;;9.27;7.35;;;;;;;22.49;69.41;101345.41;4994896;28;20034;-92
2023/06/21 05:09:52;;;;;;;10.38;7.35;;;;;;;22.55;67.11;101350.16;4997706;28;20042;-89
2023/06/21 05:12:18;;;;;;;9.95;7.68;;;;;;;22.57;67.28;101342.09;4980235;28;20030;-88
2023/06/21 05:14:43;;;;;;;11.32;7.38;;;;;;;22.81;68.78;101345.22;4988532;28;20069;-90
2023/06/21 05:17:11;;;;;;;11.00;7.40;;;;;;;22.85;66.76;101336.06;4991414;28;20030;-89
2023/06/21 05:19:36;;;;;;;15.90;7.15;;;;;;;22.82;67.10;101343.41;4993429;28;20053;-91
2023/06/21 05:22:02;;;;;;;9.13;7.32;;;;;;;22.75;67.07;101331.72;4977059;28;20431;-91
2023/06/21 05:24:27;;;;;;;9.60;7.15;;;;;;;22.81;66.15;101339.06;4978387;28;20044;-90
2023/06/21 05:26:53;;;;;;;11.98;8.93;;;;;;;22.93;66.50;101348.59;4992245;28;20444;-90
2023/06/21 05:29:19;;;;;;;9.55;7.65;;;;;;;22.88;66.85;101341.06;4978686;28;20034;-91
2023/06/21 05:31:44;;;;;;;13.50;7.53;;;;;;;22.98;65.85;101345.53;4979393;28;20480;-89
2023/06/21 05:34:10;;;;;;;11.63;7.90;;;;;;;22.90;66.06;101322.44;4993773;28;20034;-93
2023/06/21 05:36:35;;;;;;;9.93;7.22;;;;;;;23.06;65.70;101333.31;4978463;28;20053;-86
2023/06/21 05:39:01;;;;;;;10.40;7.45;;;;;;;23.14;66.37;101335.25;4995160;28;20039;-91
2023/06/21 05:41:26;;;;;;;13.75;7.82;;;;;;;23.13;65.71;101328.31;4960871;28;20041;-90
2023/06/21 05:43:52;;;;;;;12.25;8.07;;;;;;;23.19;64.35;101322.47;4992093;28;20034;-89
2023/06/21 05:46:18;;;;;;;11.48;8.23;;;;;;;23.36;64.47;101334.94;4985716;28;20030;-90
2023/06/21 05:48:44;;;;;;;11.40;8.55;;;;;;;23.37;64.79;101326.06;4977822;28;20110;-92
2023/06/21 05:51:09;;;;;;;9.82;8.10;;;;;;;23.38;64.71;101329.53;4997347;28;20070;-94
2023/06/21 05:53:34;;;;;;;11.02;8.13;;;;;;;23.42;65.65;101323.00;4985193;28;20030;-91
2023/06/21 05:56:00;;;;;;;11.10;8.02;;;;;;;23.45;64.74;101312.97;4966495;28;20050;-87
2023/06/21 05:58:25;;;;;;;9.70;7.72;;;;;;;23.60;63.41;101331.91;4989551;28;20484;-89
2023/06/21 06:00:51;;;;;;;11.30;7.55;;;;;;;23.83;67.14;101339.50;4991172;28;20085;-88
2023/06/21 06:03:16;;;;;;;8.70;7.20;;;;;;;23.99;63.17;101339.69;4992995;28;20049;-91
2023/06/21 06:05:43;;;;;;;14.90;8.60;;;;;;;24.03;64.09;101343.72;4970222;28;20031;-93
2023/06/21 06:08:09;;;;;;;10.60;7.75;;;;;;;24.17;64.33;101337.94;4960334;28;20385;-88
2023/06/21 06:10:35;;;;;;;14.20;9.05;;;;;;;24.27;61.33;101336.09;4973292;28;20049;-91
2023/06/21 06:13:00;;;;;;;10.30;7.68;;;;;;;24.37;60.75;101343.19;4991949;28;20480;-94
2023/06/21 06:15:26;;;;;;;11.30;7.60;;;;;;;24.28;60.91;101337.75;4974646;28;20049;-89
2023/06/21 06:17:51;;;;;;;10.05;7.20;;;;;;;24.37;61.54;101345.81;4991208;28;20031;-89
2023/06/21 06:20:17;;;;;;;10.80;7.93;;;;;;;24.47;60.77;101343.97;4987989;28;20136;-88
2023/06/21 06:22:42;;;;;;;14.65;8.95;;;;;;;24.53;60.15;101346.03;4997938;28;20035;-94
2023/06/21 06:25:09;;;;;;;10.35;7.90;;;;;;;24.50;60.71;101317.25;5006811;28;20038;-93
2023/06/21 06:27:34;;;;;;;17.52;8.82;;;;;;;24.76;61.20;101333.19;4992717;28;20404;-92
2023/06/21 06:30:01;;;;;;;13.35;8.52;;;;;;;24.88;59.82;101351.38;4960342;28;20026;-90
2023/06/21 06:32:27;;;;;;;12.50;9.30;;;;;;;25.02;59.22;101347.38;4979396;28;20034;-90
2023/06/21 06:34:52;;;;;;;12.30;10.38;;;;;;;25.04;59.68;101355.19;4972774;28;20109;-89
2023/06/21 06:37:18;;;;;;;9.98;8.60;;;;;;;25.14;58.94;101358.56;4977309;28;20038;-88
2023/06/21 06:39:43;;;;;;;10.65;8.38;;;;;;;25.20;58.79;101350.03;4981561;28;20037;-87
2023/06/21 06:42:10;;;;;;;11.15;7.78;;;;;;;25.25;58.51;101347.75;4974181;28;20084;-84
2023/06/21 06:44:35;;;;;;;11.57;9.38;;;;;;;25.32;58.69;101340.03;4989350;28;20029;-87
2023/06/21 06:47:01;;;;;;;11.05;8.50;;;;;;;25.48;58.23;101352.56;4972268;28;20038;-88
2023/06/21 06:49:26;;;;;;;9.75;7.65;;;;;;;25.57;57.76;101346.34;4990630;28;20448;-91
2023/06/21 06:51:52;;;;;;;9.43;7.65;;;;;;;25.72;56.55;101350.13;4991215;28;20202;-92
2023/06/21 06:54:17;;;;;;;8.60;7.32;;;;;;;25.79;54.95;101345.03;4961055;28;20037;-92
2023/06/21 06:56:43;;;;;;;22.17;10.70;;;;;;;25.86;55.77;101338.09;4971110;28;20061;-87
2023/06/21 06:59:08;;;;;;;13.45;9.63;;;;;;;25.89;54.83;101340.44;4994012;28;20376;-92
2023/06/21 07:01:34;;;;;;;9.98;7.05;;;;;;;25.98;54.66;101340.34;4993083;28;20035;-90
2023/06/21 07:04:00;;;;;;;9.38;7.70;;;;;;;26.11;55.75;101333.75;4958187;28;20415;-91
2023/06/21 07:06:25;;;;;;;13.20;7.93;;;;;;;26.21;55.00;101334.47;4973167;28;20026;-89
2023/06/21 07:08:50;;;;;;;10.75;7.30;;;;;;;26.20;56.00;101328.31;4975123;28;20069;-92
2023/06/21 07:11:16;;;;;;;12.32;7.85;;;;;;;26.31;54.94;101329.84;4992021;28;20034;-93
2023/06/21 07:13:42;;;;;;;10.02;8.10;;;;;;;26.36;55.90;101324.09;4979823;28;20026;-93
2023/06/21 07:16:08;;;;;;;22.27;10.05;;;;;;;26.50;55.73;101316.34;4975967;28;20073;-86
2023/06/21 07:18:33;;;;;;;11.23;8.70;;;;;;;26.64;54.63;101329.97;4995187;28;20030;-88
2023/06/21 07:20:58;;;;;;;11.48;8.77;;;;;;;26.73;54.47;101332.47;4990196;28;20038;-92
2023/06/21 07:23:24;;;;;;;12.25;9.65;;;;;;;26.74;54.34;101317.38;4992693;28;20026;-91
2023/06/21 07:25:49;;;;;;;13.00;8.13;;;;;;;26.92;52.94;101333.19;4994255;28;20030;-90
2023/06/21 07:28:15;;;;;;;12.10;7.95;;;;;;;27.04;52.29;101337.19;4990349;28;20084;-87
2023/06/21 07:30:42;;;;;;;13.13;7.78;;;;;;;27.17;53.32;101342.88;4989507;28;20078;-88
2023/06/21 07:33:08;;;;;;;10.02;8.57;;;;;;;27.20;52.21;101334.56;4991151;28;20584;-88
2023/06/21 07:35:34;;;;;;;16.33;8.52;;;;;;;27.32;52.28;101335.03;4988761;28;20523;-87
2023/06/21 07:37:59;;;;;;;14.02;7.68;;;;;;;27.38;50.39;101331.72;4990451;28;20031;-90
2023/06/21 07:40:25;;;;;;;9.98;7.03;;;;;;;27.37;51.10;101328.25;4973970;28;20061;-88
2023/06/21 07:42:50;;;;;;;8.13;6.50;;;;;;;27.48;48.34;101335.03;4991358;28;20034;-92
2023/06/21 07:45:16;;;;;;;7.25;6.18;;;;;;;27.65;48.97;101331.41;4978551;28;20488;-91
2023/06/21 07:47:41;;;;;;;9.20;6.22;;;;;;;27.75;48.91;101320.56;4977434;28;20062;-93
2023/06/21 07:50:07;;;;;;;10.13;7.18;;;;;;;27.95;49.10;101328.97;5056038;23;20057;-88
2023/06/21 07:52:32;;;;;;;10.50;6.80;;;;;;;27.94;48.15;101328.16;4993019;28;20026;-88
2023/06/21 07:54:58;;;;;;;8.73;6.68;;;;;;;28.05;48.65;101331.44;4986410;28;20507;-88
2023/06/21 07:57:23;;;;;;;8.43;6.70;;;;;;;28.16;48.01;101334.56;5020743;28;20052;-91
2023/06/21 07:59:49;;;;;;;8.85;6.70;;;;;;;28.00;46.85;101303.50;4995856;28;20026;-87
2023/06/21 08:02:17;;;;;;;9.07;6.55;;;;;;;28.23;47.09;101332.88;4997909;28;20036;-89
2023/06/21 08:04:43;;;;;;;15.20;7.53;;;;;;;28.21;48.75;101326.88;5011149;28;20069;-91
2023/06/21 08:07:09;;;;;;;13.23;6.80;;;;;;;28.31;47.58;101328.53;5009664;28;20491;-92
2023/06/21 08:09:34;;;;;;;9.48;7.18;;;;;;;28.19;47.92;101306.75;5012301;28;20039;-91
2023/06/21 08:12:00;;;;;;;7.03;6.07;;;;;;;28.45;46.88;101328.63;4987535;28;20049;-90
2023/06/21 08:14:26;;;;;;;24.17;7.20;;;;;;;28.47;46.63;101325.78;4999496;28;20025;-93
2023/06/21 08:16:52;;;;;;;7.65;6.30;;;;;;;28.47;46.24;101312.47;5029310;28;20032;-85
2023/06/21 08:19:17;;;;;;;7.28;6.28;;;;;;;28.55;45.50;101317.75;5013924;28;20025;-89
2023/06/21 08:21:42;;;;;;;55.38;14.32;;;;;;;28.56;46.48;101309.59;5012952;28;20037;-92
2023/06/21 08:24:08;;;;;;;12.10;8.15;;;;;;;28.61;47.12;101294.91;5016809;28;20029;-87
2023/06/21 08:26:33;;;;;;;9.10;6.50;;;;;;;28.74;45.62;101298.66;5017510;28;20029;-91
2023/06/21 08:28:59;;;;;;;7.45;5.95;;;;;;;28.83;45.04;101308.25;4996006;28;20425;-87
2023/06/21 08:31:24;;;;;;;9.23;6.43;;;;;;;28.92;45.09;101318.88;5029232;28;20132;-87
2023/06/21 08:33:50;;;;;;;7.72;6.38;;;;;;;28.91;44.85;101304.72;5023378;28;20033;-88
2023/06/21 08:36:15;;;;;;;18.00;7.10;;;;;;;29.20;45.13;101335.94;4983017;28;20118;-90
2023/06/21 08:38:41;;;;;;;8.80;7.00;;;;;;;29.23;46.13;101324.94;5015630;28;20461;-92
2023/06/21 08:41:06;;;;;;;9.45;7.38;;;;;;;29.16;46.34;101329.31;4998315;28;20037;-90
2023/06/21 08:43:32;;;;;;;8.30;5.85;;;;;;;29.13;44.85;101308.38;5031232;28;20380;-86
2023/06/21 08:45:57;;;;;;;7.43;6.25;;;;;;;29.28;44.38;101325.19;5014662;28;20037;-88
2023/06/21 08:48:23;;;;;;;8.75;7.30;;;;;;;29.38;44.13;101328.44;5014217;28;20053;-87
2023/06/21 08:50:49;;;;;;;8.68;6.13;;;;;;;29.46;42.53;101324.03;4996569;28;20029;-88
2023/06/21 08:53:20;;;;;;;13.15;10.57;;;;;;;29.54;42.66;101319.50;4998498;28;20037;-89
2023/06/21 08:55:45;;;;;;;8.88;6.97;;;;;;;29.56;44.03;101319.31;4982861;28;20036;-90
2023/06/21 08:58:14;;;;;;;9.65;7.30;;;;;;;29.56;43.24;101306.81;4989045;28;20045;-88
2023/06/21 09:00:43;;;;;;;8.40;5.93;;;;;;;29.68;42.92;101317.84;5016983;28;20029;-90
2023/06/21 09:03:20;;;;;;;7.32;5.30;;;;;;;29.88;36.92;101320.78;5017942;28;20059;-90
2023/06/21 09:06:07;;;;;;;6.30;4.85;;;;;;;29.85;36.52;101300.66;5014521;28;20086;-88
2023/06/21 09:08:33;;;;;;;7.47;5.18;;;;;;;29.95;36.56;101314.53;5014896;28;20091;-91
2023/06/21 09:10:58;;;;;;;7.43;5.38;;;;;;;30.06;36.71;101307.06;5032520;28;20044;-87
2023/06/21 09:13:27;;;;;;;6.22;4.72;;;;;;;30.20;36.33;101309.75;5014265;28;20037;-88
2023/06/21 09:15:54;;;;;;;9.95;5.82;;;;;;;30.21;36.56;101315.91;5014870;28;20065;-87
2023/06/21 09:18:20;;;;;;;6.38;4.68;;;;;;;30.07;36.87;101293.56;5012221;28;20487;-87
2023/06/21 09:20:49;;;;;;;6.53;4.90;;;;;;;30.29;37.05;101315.81;5012759;28;20032;-91
2023/06/21 09:23:14;;;;;;;10.73;5.90;;;;;;;30.22;37.93;101307.72;5014101;28;20052;-90
2023/06/21 09:25:40;;;;;;;7.20;5.35;;;;;;;30.29;38.98;101321.16;4999857;28;20427;-89
2023/06/21 09:28:06;;;;;;;7.05;5.57;;;;;;;30.47;38.81;101326.88;5013885;28;20581;-90
2023/06/21 09:30:31;;;;;;;6.95;5.38;;;;;;;30.53;37.59;101330.66;5000471;28;20033;-89
2023/06/21 09:32:57;;;;;;;7.35;5.28;;;;;;;30.53;37.17;101326.13;5018196;28;20044;-92
2023/06/21 09:35:23;;;;;;;7.50;5.88;;;;;;;30.36;38.42;101307.88;4997997;28;20099;-88
2023/06/21 09:37:49;;;;;;;14.40;11.02;;;;;;;30.56;38.14;101325.75;5032206;28;20469;-89
2023/06/21 09:40:14;;;;;;;8.43;6.03;;;;;;;30.58;37.96;101322.06;5030196;28;20124;-84
2023/06/21 09:42:40;;;;;;;6.55;5.30;;;;;;;30.70;38.13;101331.28;5015799;28;20021;-94
2023/06/21 09:45:12;;;;;;;5.90;5.30;;;;;;;30.80;38.14;101334.47;5000122;28;20091;-92
2023/06/21 09:47:41;;;;;;;6.15;5.18;;;;;;;30.82;38.14;101327.09;4998308;28;20033;-85
2023/06/21 09:50:07;;;;;;;10.10;7.10;;;;;;;31.09;36.82;101337.00;4993576;28;20229;-86
2023/06/21 09:52:33;;;;;;;9.93;6.00;;;;;;;31.04;36.21;101334.06;5010287;28;20029;-89
2023/06/21 09:54:59;;;;;;;8.10;5.70;;;;;;;31.13;36.91;101338.25;5011280;28;20121;-95
2023/06/21 09:57:31;;;;;;;6.95;5.78;;;;;;;31.11;35.97;101329.59;4989375;28;20415;-93
2023/06/21 09:59:58;;;;;;;6.18;5.40;;;;;;;31.16;36.19;101330.88;5003860;28;20057;-95
2023/06/21 10:02:24;;;;;;;7.68;5.28;;;;;;;31.29;35.58;101325.69;5016464;28;20018;-90
2023/06/21 10:04:54;;;;;;;6.30;5.35;;;;;;;31.31;38.25;101331.66;5008379;28;20085;-86
2023/06/21 10:07:20;;;;;;;10.07;6.80;;;;;;;31.26;38.12;101312.69;4990087;28;20030;-87
2023/06/21 10:09:46;;;;;;;9.02;7.38;;;;;;;31.50;39.58;101317.59;5006757;28;20140;-87
2023/06/21 10:12:13;;;;;;;14.70;6.70;;;;;;;31.56;37.05;101316.81;5026562;28;20229;-88
2023/06/21 10:14:39;;;;;;;8.63;6.03;;;;;;;31.60;38.12;101309.22;5008214;28;20128;-92
2023/06/21 10:17:04;;;;;;;6.78;6.00;;;;;;;31.84;37.40;101319.47;5010173;28;20030;-90
2023/06/21 10:19:30;;;;;;;6.95;5.50;;;;;;;31.90;36.49;101317.84;5010732;28;20097;-87
2023/06/21 10:22:10;;;;;;;6.90;5.50;;;;;;;31.66;37.60;101295.91;5009708;28;20045;-87
2023/06/21 10:24:39;;;;;;;7.32;5.78;;;;;;;31.83;37.56;101317.00;5011986;28;20045;-92
2023/06/21 10:27:05;;;;;;;7.00;5.68;;;;;;;31.76;37.64;101305.41;4994588;28;20041;-90
2023/06/21 10:29:31;;;;;;;10.88;5.95;;;;;;;31.96;39.42;101311.72;5006088;28;21082;-87
2023/06/21 10:31:57;;;;;;;7.18;5.72;;;;;;;31.93;36.97;101296.03;5006393;28;20034;-90
2023/06/21 10:34:22;;;;;;;7.35;5.75;;;;;;;32.08;36.54;101301.25;5011539;28;20380;-85
2023/06/21 10:36:49;;;;;;;6.45;5.45;;;;;;;32.14;36.93;101301.28;4993117;28;20065;-86
2023/06/21 10:39:15;;;;;;;6.22;5.45;;;;;;;32.16;35.20;101309.94;5009794;28;20037;-88
2023/06/21 10:41:40;;;;;;;7.00;5.72;;;;;;;32.15;37.38;101310.97;5025281;28;20073;-84
2023/06/21 10:44:06;;;;;;;6.32;5.13;;;;;;;32.37;35.63;101316.22;5007392;28;20500;-87
2023/06/21 10:46:32;;;;;;;9.55;5.25;;;;;;;32.59;34.99;101317.72;5006768;28;20423;-85
2023/06/21 10:48:57;;;;;;;7.43;5.72;;;;;;;32.46;35.80;101318.53;5009389;28;20046;-86
2023/06/21 10:51:23;;;;;;;6.85;5.68;;;;;;;32.52;36.99;101322.22;5009625;28;20037;-89
2023/06/21 10:53:48;;;;;;;6.10;5.05;;;;;;;32.56;35.78;101323.50;5012083;28;20030;-89
2023/06/21 10:56:16;;;;;;;6.13;5.32;;;;;;;32.34;35.96;101297.88;5015224;28;20037;-86
2023/06/21 10:58:42;;;;;;;7.05;5.75;;;;;;;32.42;35.67;101311.06;4994264;28;20426;-90
2023/06/21 11:01:07;;;;;;;8.48;5.22;;;;;;;32.38;35.86;101315.19;5009360;28;20037;-92
2023/06/21 11:03:32;;;;;;;7.90;5.35;;;;;;;32.55;34.99;101321.84;5010700;28;20033;-86
2023/06/21 11:06:20;;;;;;;8.73;5.18;;;;;;;32.77;34.88;101320.63;5009017;28;20034;-86
2023/06/21 11:08:46;;;;;;;5.80;5.18;;;;;;;32.94;35.30;101306.84;5009879;28;20037;-90
2023/06/21 11:11:29;;;;;;;7.25;5.15;;;;;;;32.92;33.78;101308.91;5024013;28;20095;-87
2023/06/21 11:13:54;;;;;;;6.45;5.32;;;;;;;33.03;34.84;101303.75;5019200;28;20029;-86
2023/06/21 11:16:20;;;;;;;8.02;5.75;;;;;;;32.88;33.94;101313.03;4993095;28;20045;-88
2023/06/21 11:18:49;;;;;;;6.22;5.32;;;;;;;33.26;33.25;101319.44;5010139;28;20109;-86